sensor_id;sensor_type;location;lat;lon;timestamp;P1;durP1;ratioP1;P2;durP2;ratioP2
74908;SDS011;63468;52.058;4.824;2023-04-01T00:00:18;41.63;;;33.83;;
74908;SDS011;63468;52.058;4.824;2023-04-01T00:02:43;45.38;;;36.55;;
74908;SDS011;63468;52.058;4.824;2023-04-01T00:05:09;47.67;;;36.53;;
74908;SDS011;63468;52.058;4.824;2023-04-01T00:07:38;39.05;;;34.40;;
74908;SDS011;63468;52.058;4.824;2023-04-01T00:10:08;48.45;;;35.20;;
74908;SDS011;63468;52.058;4.824;2023-04-01T00:12:35;45.80;;;35.83;;
74908;SDS011;63468;52.058;4.824;2023-04-01T00:15:01;42.17;;;29.50;;
74908;SDS011;63468;52.058;4.824;2023-04-01T00:17:27;33.60;;;25.42;;
74908;SDS011;63468;52.058;4.824;2023-04-01T00:19:54;32.15;;;26.98;;
74908;SDS011;63468;52.058;4.824;2023-04-01T00:22:20;38.92;;;27.27;;
74908;SDS011;63468;52.058;4.824;2023-04-01T00:24:46;41.95;;;29.85;;
74908;SDS011;63468;52.058;4.824;2023-04-01T00:27:12;39.97;;;27.17;;
74908;SDS011;63468;52.058;4.824;2023-04-01T00:29:37;39.28;;;27.65;;
74908;SDS011;63468;52.058;4.824;2023-04-01T00:32:03;38.70;;;27.17;;
74908;SDS011;63468;52.058;4.824;2023-04-01T00:34:28;40.70;;;25.77;;
74908;SDS011;63468;52.058;4.824;2023-04-01T00:36:53;33.72;;;25.50;;
74908;SDS011;63468;52.058;4.824;2023-04-01T00:39:19;37.35;;;29.45;;
74908;SDS011;63468;52.058;4.824;2023-04-01T00:41:45;44.90;;;31.73;;
74908;SDS011;63468;52.058;4.824;2023-04-01T00:44:21;36.40;;;30.90;;
74908;SDS011;63468;52.058;4.824;2023-04-01T00:46:50;33.60;;;27.02;;
74908;SDS011;63468;52.058;4.824;2023-04-01T00:49:17;40.45;;;29.77;;
74908;SDS011;63468;52.058;4.824;2023-04-01T00:51:44;39.10;;;31.35;;
74908;SDS011;63468;52.058;4.824;2023-04-01T00:54:11;34.85;;;28.58;;
74908;SDS011;63468;52.058;4.824;2023-04-01T00:56:38;40.08;;;32.67;;
74908;SDS011;63468;52.058;4.824;2023-04-01T00:59:08;31.90;;;28.05;;
74908;SDS011;63468;52.058;4.824;2023-04-01T01:01:55;39.38;;;22.83;;
74908;SDS011;63468;52.058;4.824;2023-04-01T01:04:22;33.05;;;23.02;;
74908;SDS011;63468;52.058;4.824;2023-04-01T01:07:03;39.03;;;22.40;;
74908;SDS011;63468;52.058;4.824;2023-04-01T01:09:55;30.60;;;21.17;;
74908;SDS011;63468;52.058;4.824;2023-04-01T01:12:29;34.85;;;23.40;;
74908;SDS011;63468;52.058;4.824;2023-04-01T01:20:24;28.58;;;18.73;;
74908;SDS011;63468;52.058;4.824;2023-04-01T01:31:50;25.10;;;21.92;;
74908;SDS011;63468;52.058;4.824;2023-04-01T01:37:18;33.97;;;23.20;;
74908;SDS011;63468;52.058;4.824;2023-04-01T01:39:47;26.67;;;24.08;;
74908;SDS011;63468;52.058;4.824;2023-04-01T01:42:16;27.13;;;24.08;;
74908;SDS011;63468;52.058;4.824;2023-04-01T01:44:44;30.25;;;19.58;;
74908;SDS011;63468;52.058;4.824;2023-04-01T01:47:11;24.70;;;20.27;;
74908;SDS011;63468;52.058;4.824;2023-04-01T01:49:36;32.35;;;24.42;;
74908;SDS011;63468;52.058;4.824;2023-04-01T01:52:03;30.58;;;27.35;;
74908;SDS011;63468;52.058;4.824;2023-04-01T01:54:28;29.27;;;24.13;;
74908;SDS011;63468;52.058;4.824;2023-04-01T01:57:00;30.45;;;27.50;;
74908;SDS011;63468;52.058;4.824;2023-04-01T01:59:29;29.17;;;22.95;;
74908;SDS011;63468;52.058;4.824;2023-04-01T02:01:55;24.42;;;22.08;;
74908;SDS011;63468;52.058;4.824;2023-04-01T02:04:21;29.98;;;26.65;;
74908;SDS011;63468;52.058;4.824;2023-04-01T02:06:58;29.58;;;25.90;;
74908;SDS011;63468;52.058;4.824;2023-04-01T02:09:26;24.70;;;22.05;;
74908;SDS011;63468;52.058;4.824;2023-04-01T02:11:52;30.13;;;27.02;;
74908;SDS011;63468;52.058;4.824;2023-04-01T02:19:44;29.17;;;23.05;;
74908;SDS011;63468;52.058;4.824;2023-04-01T02:22:13;29.70;;;26.98;;
74908;SDS011;63468;52.058;4.824;2023-04-01T02:24:41;25.23;;;21.52;;
74908;SDS011;63468;52.058;4.824;2023-04-01T02:27:07;27.83;;;25.02;;
74908;SDS011;63468;52.058;4.824;2023-04-01T02:29:34;29.00;;;25.98;;
74908;SDS011;63468;52.058;4.824;2023-04-01T02:31:59;30.17;;;26.05;;
74908;SDS011;63468;52.058;4.824;2023-04-01T02:34:25;26.88;;;24.23;;
74908;SDS011;63468;52.058;4.824;2023-04-01T02:36:51;25.13;;;22.73;;
74908;SDS011;63468;52.058;4.824;2023-04-01T02:39:17;32.67;;;29.15;;
74908;SDS011;63468;52.058;4.824;2023-04-01T02:41:43;31.80;;;28.65;;
74908;SDS011;63468;52.058;4.824;2023-04-01T02:44:10;32.53;;;29.88;;
74908;SDS011;63468;52.058;4.824;2023-04-01T02:46:37;28.95;;;25.98;;
74908;SDS011;63468;52.058;4.824;2023-04-01T02:49:03;35.30;;;31.98;;
74908;SDS011;63468;52.058;4.824;2023-04-01T02:51:29;33.85;;;30.30;;
74908;SDS011;63468;52.058;4.824;2023-04-01T02:53:54;31.05;;;27.98;;
74908;SDS011;63468;52.058;4.824;2023-04-01T02:56:19;36.63;;;32.30;;
74908;SDS011;63468;52.058;4.824;2023-04-01T02:58:45;45.10;;;31.38;;
74908;SDS011;63468;52.058;4.824;2023-04-01T03:01:11;36.47;;;31.55;;
74908;SDS011;63468;52.058;4.824;2023-04-01T03:03:36;46.75;;;32.83;;
74908;SDS011;63468;52.058;4.824;2023-04-01T03:06:08;47.55;;;30.20;;
74908;SDS011;63468;52.058;4.824;2023-04-01T03:08:34;39.00;;;31.83;;
74908;SDS011;63468;52.058;4.824;2023-04-01T03:11:00;56.67;;;33.30;;
74908;SDS011;63468;52.058;4.824;2023-04-01T03:13:25;44.38;;;29.33;;
74908;SDS011;63468;52.058;4.824;2023-04-01T03:15:51;54.40;;;32.55;;
74908;SDS011;63468;52.058;4.824;2023-04-01T03:18:16;51.92;;;32.65;;
74908;SDS011;63468;52.058;4.824;2023-04-01T03:20:41;57.63;;;30.15;;
74908;SDS011;63468;52.058;4.824;2023-04-01T03:23:07;47.83;;;30.85;;
74908;SDS011;63468;52.058;4.824;2023-04-01T03:25:32;48.75;;;33.75;;
74908;SDS011;63468;52.058;4.824;2023-04-01T03:27:58;40.67;;;27.95;;
74908;SDS011;63468;52.058;4.824;2023-04-01T03:30:24;37.60;;;33.70;;
74908;SDS011;63468;52.058;4.824;2023-04-01T03:32:50;34.17;;;27.27;;
74908;SDS011;63468;52.058;4.824;2023-04-01T03:35:16;33.72;;;27.40;;
74908;SDS011;63468;52.058;4.824;2023-04-01T03:37:41;39.45;;;30.70;;
74908;SDS011;63468;52.058;4.824;2023-04-01T03:40:07;35.88;;;26.23;;
74908;SDS011;63468;52.058;4.824;2023-04-01T03:42:32;28.15;;;23.15;;
74908;SDS011;63468;52.058;4.824;2023-04-01T03:44:58;36.22;;;27.02;;
74908;SDS011;63468;52.058;4.824;2023-04-01T03:47:23;40.33;;;28.98;;
74908;SDS011;63468;52.058;4.824;2023-04-01T03:49:48;37.30;;;31.40;;
74908;SDS011;63468;52.058;4.824;2023-04-01T03:52:14;36.88;;;28.55;;
74908;SDS011;63468;52.058;4.824;2023-04-01T03:54:41;34.70;;;28.35;;
74908;SDS011;63468;52.058;4.824;2023-04-01T03:57:06;39.50;;;25.08;;
74908;SDS011;63468;52.058;4.824;2023-04-01T03:59:31;36.95;;;23.73;;
74908;SDS011;63468;52.058;4.824;2023-04-01T04:01:57;39.40;;;25.95;;
74908;SDS011;63468;52.058;4.824;2023-04-01T04:04:22;38.78;;;28.52;;
74908;SDS011;63468;52.058;4.824;2023-04-01T04:06:47;45.33;;;27.85;;
74908;SDS011;63468;52.058;4.824;2023-04-01T04:09:13;39.30;;;26.73;;
74908;SDS011;63468;52.058;4.824;2023-04-01T04:11:38;39.90;;;28.17;;
74908;SDS011;63468;52.058;4.824;2023-04-01T04:14:04;41.97;;;26.98;;
74908;SDS011;63468;52.058;4.824;2023-04-01T04:16:29;41.78;;;28.48;;
74908;SDS011;63468;52.058;4.824;2023-04-01T04:18:55;44.40;;;31.83;;
74908;SDS011;63468;52.058;4.824;2023-04-01T04:21:20;39.53;;;31.70;;
74908;SDS011;63468;52.058;4.824;2023-04-01T04:23:45;44.88;;;29.42;;
74908;SDS011;63468;52.058;4.824;2023-04-01T04:26:12;52.33;;;30.77;;
74908;SDS011;63468;52.058;4.824;2023-04-01T04:28:38;49.25;;;35.17;;
74908;SDS011;63468;52.058;4.824;2023-04-01T04:31:04;43.88;;;35.45;;
74908;SDS011;63468;52.058;4.824;2023-04-01T04:33:30;43.80;;;28.42;;
74908;SDS011;63468;52.058;4.824;2023-04-01T04:35:56;45.83;;;30.95;;
74908;SDS011;63468;52.058;4.824;2023-04-01T04:38:22;40.80;;;36.13;;
74908;SDS011;63468;52.058;4.824;2023-04-01T04:40:47;41.13;;;29.20;;
74908;SDS011;63468;52.058;4.824;2023-04-01T04:43:13;46.53;;;30.65;;
74908;SDS011;63468;52.058;4.824;2023-04-01T04:45:40;44.80;;;32.35;;
74908;SDS011;63468;52.058;4.824;2023-04-01T04:48:07;40.60;;;32.70;;
74908;SDS011;63468;52.058;4.824;2023-04-01T04:50:33;39.97;;;33.00;;
74908;SDS011;63468;52.058;4.824;2023-04-01T04:52:58;37.78;;;30.33;;
74908;SDS011;63468;52.058;4.824;2023-04-01T04:55:24;40.20;;;31.20;;
74908;SDS011;63468;52.058;4.824;2023-04-01T04:57:49;44.67;;;32.25;;
74908;SDS011;63468;52.058;4.824;2023-04-01T05:00:15;37.70;;;32.40;;
74908;SDS011;63468;52.058;4.824;2023-04-01T05:02:40;39.58;;;32.42;;
74908;SDS011;63468;52.058;4.824;2023-04-01T05:05:06;40.33;;;30.30;;
74908;SDS011;63468;52.058;4.824;2023-04-01T05:07:32;41.78;;;30.45;;
74908;SDS011;63468;52.058;4.824;2023-04-01T05:09:58;40.70;;;30.08;;
74908;SDS011;63468;52.058;4.824;2023-04-01T05:12:23;35.97;;;29.45;;
74908;SDS011;63468;52.058;4.824;2023-04-01T05:14:48;36.35;;;29.88;;
74908;SDS011;63468;52.058;4.824;2023-04-01T05:17:14;38.45;;;32.50;;
74908;SDS011;63468;52.058;4.824;2023-04-01T05:19:39;44.28;;;29.08;;
74908;SDS011;63468;52.058;4.824;2023-04-01T05:22:05;46.45;;;29.65;;
74908;SDS011;63468;52.058;4.824;2023-04-01T05:24:30;46.97;;;31.73;;
74908;SDS011;63468;52.058;4.824;2023-04-01T05:26:56;44.42;;;31.58;;
74908;SDS011;63468;52.058;4.824;2023-04-01T05:29:22;48.85;;;30.77;;
74908;SDS011;63468;52.058;4.824;2023-04-01T05:31:48;48.60;;;33.63;;
74908;SDS011;63468;52.058;4.824;2023-04-01T05:34:13;50.88;;;31.90;;
74908;SDS011;63468;52.058;4.824;2023-04-01T05:36:39;43.28;;;30.80;;
74908;SDS011;63468;52.058;4.824;2023-04-01T05:39:04;43.47;;;28.55;;
74908;SDS011;63468;52.058;4.824;2023-04-01T05:41:30;43.05;;;29.55;;
74908;SDS011;63468;52.058;4.824;2023-04-01T05:43:55;41.67;;;26.75;;
74908;SDS011;63468;52.058;4.824;2023-04-01T05:46:20;41.08;;;28.23;;
74908;SDS011;63468;52.058;4.824;2023-04-01T05:48:46;46.55;;;29.90;;
74908;SDS011;63468;52.058;4.824;2023-04-01T05:51:14;43.83;;;29.42;;
74908;SDS011;63468;52.058;4.824;2023-04-01T05:53:40;41.42;;;26.83;;
74908;SDS011;63468;52.058;4.824;2023-04-01T05:56:06;38.38;;;28.20;;
74908;SDS011;63468;52.058;4.824;2023-04-01T05:58:34;40.28;;;28.77;;
74908;SDS011;63468;52.058;4.824;2023-04-01T06:01:00;39.70;;;30.05;;
74908;SDS011;63468;52.058;4.824;2023-04-01T06:03:27;38.28;;;24.70;;
74908;SDS011;63468;52.058;4.824;2023-04-01T06:05:52;39.75;;;27.30;;
74908;SDS011;63468;52.058;4.824;2023-04-01T06:08:18;37.95;;;28.35;;
74908;SDS011;63468;52.058;4.824;2023-04-01T06:13:35;36.70;;;28.63;;
74908;SDS011;63468;52.058;4.824;2023-04-01T06:18:59;38.38;;;26.83;;
74908;SDS011;63468;52.058;4.824;2023-04-01T06:21:37;35.03;;;26.58;;
74908;SDS011;63468;52.058;4.824;2023-04-01T06:24:28;37.13;;;27.85;;
74908;SDS011;63468;52.058;4.824;2023-04-01T06:27:02;43.45;;;31.13;;
74908;SDS011;63468;52.058;4.824;2023-04-01T06:29:49;42.28;;;29.95;;
74908;SDS011;63468;52.058;4.824;2023-04-01T06:35:14;41.85;;;30.92;;
74908;SDS011;63468;52.058;4.824;2023-04-01T06:45:59;45.45;;;37.42;;
74908;SDS011;63468;52.058;4.824;2023-04-01T06:54:04;42.05;;;30.45;;
74908;SDS011;63468;52.058;4.824;2023-04-01T06:56:34;41.47;;;30.27;;
74908;SDS011;63468;52.058;4.824;2023-04-01T06:59:08;51.03;;;30.42;;
74908;SDS011;63468;52.058;4.824;2023-04-01T07:01:47;49.25;;;32.15;;
74908;SDS011;63468;52.058;4.824;2023-04-01T07:04:16;52.40;;;32.42;;
74908;SDS011;63468;52.058;4.824;2023-04-01T07:07:19;44.72;;;33.90;;
74908;SDS011;63468;52.058;4.824;2023-04-01T07:09:54;44.65;;;28.65;;
74908;SDS011;63468;52.058;4.824;2023-04-01T07:15:17;41.15;;;31.45;;
74908;SDS011;63468;52.058;4.824;2023-04-01T07:17:45;43.47;;;32.75;;
74908;SDS011;63468;52.058;4.824;2023-04-01T07:20:17;45.63;;;31.33;;
74908;SDS011;63468;52.058;4.824;2023-04-01T07:22:51;49.13;;;28.33;;
74908;SDS011;63468;52.058;4.824;2023-04-01T07:25:20;47.13;;;31.60;;
74908;SDS011;63468;52.058;4.824;2023-04-01T07:27:50;42.00;;;28.15;;
74908;SDS011;63468;52.058;4.824;2023-04-01T07:30:19;38.60;;;26.70;;
74908;SDS011;63468;52.058;4.824;2023-04-01T07:33:21;42.15;;;27.63;;
74908;SDS011;63468;52.058;4.824;2023-04-01T07:35:55;46.42;;;30.13;;
74908;SDS011;63468;52.058;4.824;2023-04-01T07:41:32;45.70;;;31.00;;
74908;SDS011;63468;52.058;4.824;2023-04-01T07:44:12;38.17;;;28.02;;
74908;SDS011;63468;52.058;4.824;2023-04-01T07:46:46;42.67;;;27.60;;
74908;SDS011;63468;52.058;4.824;2023-04-01T07:49:51;37.72;;;26.35;;
74908;SDS011;63468;52.058;4.824;2023-04-01T07:55:58;39.33;;;25.30;;
74908;SDS011;63468;52.058;4.824;2023-04-01T07:58:26;30.80;;;23.93;;
74908;SDS011;63468;52.058;4.824;2023-04-01T08:00:59;36.08;;;26.58;;
74908;SDS011;63468;52.058;4.824;2023-04-01T08:03:35;35.10;;;25.33;;
74908;SDS011;63468;52.058;4.824;2023-04-01T08:14:32;44.25;;;25.23;;
74908;SDS011;63468;52.058;4.824;2023-04-01T08:17:09;36.10;;;25.15;;
74908;SDS011;63468;52.058;4.824;2023-04-01T08:22:12;35.53;;;24.83;;
74908;SDS011;63468;52.058;4.824;2023-04-01T08:24:44;39.22;;;26.85;;
74908;SDS011;63468;52.058;4.824;2023-04-01T08:27:13;38.17;;;25.55;;
74908;SDS011;63468;52.058;4.824;2023-04-01T08:32:12;36.58;;;27.17;;
74908;SDS011;63468;52.058;4.824;2023-04-01T08:34:43;35.35;;;25.80;;
74908;SDS011;63468;52.058;4.824;2023-04-01T08:37:15;35.28;;;27.48;;
74908;SDS011;63468;52.058;4.824;2023-04-01T08:39:48;31.52;;;26.92;;
74908;SDS011;63468;52.058;4.824;2023-04-01T08:45:10;31.38;;;25.90;;
74908;SDS011;63468;52.058;4.824;2023-04-01T08:53:16;29.45;;;25.55;;
74908;SDS011;63468;52.058;4.824;2023-04-01T08:56:03;33.92;;;28.17;;
74908;SDS011;63468;52.058;4.824;2023-04-01T09:06:34;36.80;;;25.02;;
74908;SDS011;63468;52.058;4.824;2023-04-01T09:12:15;32.00;;;26.30;;
74908;SDS011;63468;52.058;4.824;2023-04-01T09:20:44;28.65;;;22.95;;
74908;SDS011;63468;52.058;4.824;2023-04-01T09:28:33;28.13;;;25.33;;
74908;SDS011;63468;52.058;4.824;2023-04-01T09:31:09;30.50;;;27.40;;
74908;SDS011;63468;52.058;4.824;2023-04-01T09:36:30;27.42;;;24.10;;
74908;SDS011;63468;52.058;4.824;2023-04-01T09:44:23;32.78;;;27.67;;
74908;SDS011;63468;52.058;4.824;2023-04-01T09:47:01;27.73;;;24.80;;
74908;SDS011;63468;52.058;4.824;2023-04-01T09:52:43;29.73;;;24.25;;
74908;SDS011;63468;52.058;4.824;2023-04-01T09:55:19;26.63;;;23.35;;
74908;SDS011;63468;52.058;4.824;2023-04-01T10:03:13;23.92;;;21.83;;
74908;SDS011;63468;52.058;4.824;2023-04-01T10:05:58;24.92;;;22.90;;
74908;SDS011;63468;52.058;4.824;2023-04-01T10:09:01;26.38;;;24.27;;
74908;SDS011;63468;52.058;4.824;2023-04-01T10:12:08;23.33;;;21.48;;
74908;SDS011;63468;52.058;4.824;2023-04-01T10:20:28;24.38;;;22.67;;
74908;SDS011;63468;52.058;4.824;2023-04-01T10:26:06;23.33;;;21.33;;
74908;SDS011;63468;52.058;4.824;2023-04-01T10:32:03;23.98;;;22.08;;
74908;SDS011;63468;52.058;4.824;2023-04-01T10:49:10;24.15;;;20.75;;
74908;SDS011;63468;52.058;4.824;2023-04-01T10:57:59;24.23;;;22.00;;
74908;SDS011;63468;52.058;4.824;2023-04-01T11:09:42;23.88;;;21.45;;
74908;SDS011;63468;52.058;4.824;2023-04-01T11:25:23;22.55;;;20.35;;
74908;SDS011;63468;52.058;4.824;2023-04-01T11:31:17;21.48;;;19.25;;
74908;SDS011;63468;52.058;4.824;2023-04-01T11:36:36;25.23;;;22.97;;
74908;SDS011;63468;52.058;4.824;2023-04-01T11:44:50;22.27;;;19.95;;
74908;SDS011;63468;52.058;4.824;2023-04-01T11:47:44;24.60;;;22.13;;
74908;SDS011;63468;52.058;4.824;2023-04-01T11:50:45;27.73;;;25.02;;
74908;SDS011;63468;52.058;4.824;2023-04-01T11:53:34;28.40;;;25.50;;
74908;SDS011;63468;52.058;4.824;2023-04-01T11:56:09;24.35;;;22.05;;
74908;SDS011;63468;52.058;4.824;2023-04-01T12:01:26;27.52;;;24.85;;
74908;SDS011;63468;52.058;4.824;2023-04-01T12:07:03;23.90;;;21.60;;
74908;SDS011;63468;52.058;4.824;2023-04-01T12:20:47;25.38;;;20.95;;
74908;SDS011;63468;52.058;4.824;2023-04-01T12:23:39;22.20;;;20.05;;
74908;SDS011;63468;52.058;4.824;2023-04-01T12:29:08;25.77;;;23.13;;
74908;SDS011;63468;52.058;4.824;2023-04-01T12:34:48;25.30;;;22.67;;
74908;SDS011;63468;52.058;4.824;2023-04-01T12:37:36;28.75;;;25.70;;
74908;SDS011;63468;52.058;4.824;2023-04-01T13:03:16;31.08;;;25.33;;
74908;SDS011;63468;52.058;4.824;2023-04-01T13:11:36;30.75;;;24.20;;
74908;SDS011;63468;52.058;4.824;2023-04-01T13:17:12;29.10;;;24.08;;
74908;SDS011;63468;52.058;4.824;2023-04-01T13:22:30;38.45;;;27.17;;
74908;SDS011;63468;52.058;4.824;2023-04-01T13:25:06;31.77;;;27.80;;
74908;SDS011;63468;52.058;4.824;2023-04-01T13:28:36;26.25;;;22.65;;
74908;SDS011;63468;52.058;4.824;2023-04-01T13:33:37;28.23;;;23.35;;
74908;SDS011;63468;52.058;4.824;2023-04-01T13:36:20;28.30;;;21.35;;
74908;SDS011;63468;52.058;4.824;2023-04-01T13:44:14;26.88;;;24.15;;
74908;SDS011;63468;52.058;4.824;2023-04-01T13:47:04;34.10;;;24.67;;
74908;SDS011;63468;52.058;4.824;2023-04-01T13:54:46;28.08;;;25.25;;
74908;SDS011;63468;52.058;4.824;2023-04-01T14:00:20;25.55;;;23.25;;
74908;SDS011;63468;52.058;4.824;2023-04-01T14:02:55;26.38;;;24.05;;
74908;SDS011;63468;52.058;4.824;2023-04-01T14:08:26;24.75;;;22.48;;
74908;SDS011;63468;52.058;4.824;2023-04-01T14:13:50;20.65;;;18.67;;
74908;SDS011;63468;52.058;4.824;2023-04-01T14:29:57;24.60;;;22.40;;
74908;SDS011;63468;52.058;4.824;2023-04-01T14:35:37;22.58;;;20.52;;
74908;SDS011;63468;52.058;4.824;2023-04-01T14:38:24;21.15;;;19.33;;
74908;SDS011;63468;52.058;4.824;2023-04-01T14:40:56;20.92;;;18.73;;
74908;SDS011;63468;52.058;4.824;2023-04-01T14:46:08;24.83;;;22.52;;
74908;SDS011;63468;52.058;4.824;2023-04-01T14:48:53;24.20;;;22.08;;
74908;SDS011;63468;52.058;4.824;2023-04-01T14:51:56;20.75;;;18.85;;
74908;SDS011;63468;52.058;4.824;2023-04-01T14:54:16;22.20;;;19.80;;
74908;SDS011;63468;52.058;4.824;2023-04-01T14:59:35;20.83;;;18.80;;
74908;SDS011;63468;52.058;4.824;2023-04-01T15:13:12;27.60;;;25.08;;
74908;SDS011;63468;52.058;4.824;2023-04-01T15:18:25;27.08;;;24.02;;
74908;SDS011;63468;52.058;4.824;2023-04-01T15:23:48;27.30;;;24.50;;
74908;SDS011;63468;52.058;4.824;2023-04-01T15:27:06;25.27;;;22.67;;
74908;SDS011;63468;52.058;4.824;2023-04-01T15:29:31;27.50;;;24.85;;
74908;SDS011;63468;52.058;4.824;2023-04-01T15:32:16;27.77;;;25.08;;
74908;SDS011;63468;52.058;4.824;2023-04-01T15:37:48;28.65;;;25.75;;
74908;SDS011;63468;52.058;4.824;2023-04-01T15:40:29;27.55;;;24.95;;
74908;SDS011;63468;52.058;4.824;2023-04-01T15:51:11;26.88;;;24.13;;
74908;SDS011;63468;52.058;4.824;2023-04-01T15:53:46;25.37;;;23.17;;
74908;SDS011;63468;52.058;4.824;2023-04-01T15:59:47;23.58;;;21.40;;
74908;SDS011;63468;52.058;4.824;2023-04-01T16:02:45;23.55;;;21.45;;
74908;SDS011;63468;52.058;4.824;2023-04-01T16:13:28;22.55;;;20.40;;
74908;SDS011;63468;52.058;4.824;2023-04-01T16:19:13;27.88;;;24.92;;
74908;SDS011;63468;52.058;4.824;2023-04-01T16:21:56;28.05;;;25.85;;
74908;SDS011;63468;52.058;4.824;2023-04-01T16:29:48;24.83;;;22.65;;
74908;SDS011;63468;52.058;4.824;2023-04-01T16:32:18;26.75;;;24.00;;
74908;SDS011;63468;52.058;4.824;2023-04-01T16:34:55;20.33;;;18.45;;
74908;SDS011;63468;52.058;4.824;2023-04-01T16:37:34;23.02;;;20.80;;
74908;SDS011;63468;52.058;4.824;2023-04-01T16:40:11;22.58;;;20.60;;
74908;SDS011;63468;52.058;4.824;2023-04-01T16:42:51;21.63;;;19.33;;
74908;SDS011;63468;52.058;4.824;2023-04-01T16:48:14;20.25;;;18.35;;
74908;SDS011;63468;52.058;4.824;2023-04-01T16:50:44;18.98;;;17.08;;
74908;SDS011;63468;52.058;4.824;2023-04-01T16:53:17;19.85;;;17.85;;
74908;SDS011;63468;52.058;4.824;2023-04-01T16:55:52;19.10;;;17.20;;
74908;SDS011;63468;52.058;4.824;2023-04-01T17:03:42;19.23;;;17.52;;
74908;SDS011;63468;52.058;4.824;2023-04-01T17:08:54;16.92;;;15.43;;
74908;SDS011;63468;52.058;4.824;2023-04-01T17:11:27;22.08;;;17.27;;
74908;SDS011;63468;52.058;4.824;2023-04-01T17:17:05;17.52;;;16.02;;
74908;SDS011;63468;52.058;4.824;2023-04-01T17:19:46;19.20;;;17.60;;
74908;SDS011;63468;52.058;4.824;2023-04-01T17:27:49;19.20;;;17.48;;
74908;SDS011;63468;52.058;4.824;2023-04-01T17:35:48;16.60;;;15.23;;
74908;SDS011;63468;52.058;4.824;2023-04-01T17:38:34;17.15;;;15.70;;
74908;SDS011;63468;52.058;4.824;2023-04-01T17:43:47;20.48;;;19.05;;
74908;SDS011;63468;52.058;4.824;2023-04-01T17:49:25;20.23;;;18.45;;
74908;SDS011;63468;52.058;4.824;2023-04-01T18:00:24;21.45;;;19.63;;
74908;SDS011;63468;52.058;4.824;2023-04-01T18:03:06;21.27;;;19.60;;
74908;SDS011;63468;52.058;4.824;2023-04-01T18:17:25;20.20;;;18.52;;
74908;SDS011;63468;52.058;4.824;2023-04-01T18:22:59;21.10;;;19.10;;
74908;SDS011;63468;52.058;4.824;2023-04-01T18:25:36;20.63;;;18.92;;
74908;SDS011;63468;52.058;4.824;2023-04-01T18:30:31;18.00;;;16.50;;
74908;SDS011;63468;52.058;4.824;2023-04-01T18:38:23;17.75;;;16.27;;
74908;SDS011;63468;52.058;4.824;2023-04-01T18:41:07;17.98;;;16.55;;
74908;SDS011;63468;52.058;4.824;2023-04-01T18:46:30;21.85;;;20.15;;
74908;SDS011;63468;52.058;4.824;2023-04-01T18:54:11;23.00;;;21.10;;
74908;SDS011;63468;52.058;4.824;2023-04-01T18:56:45;22.25;;;20.30;;
74908;SDS011;63468;52.058;4.824;2023-04-01T19:04:42;21.65;;;19.83;;
74908;SDS011;63468;52.058;4.824;2023-04-01T19:10:17;22.13;;;20.20;;
74908;SDS011;63468;52.058;4.824;2023-04-01T19:15:49;20.17;;;18.48;;
74908;SDS011;63468;52.058;4.824;2023-04-01T19:21:01;20.58;;;18.98;;
74908;SDS011;63468;52.058;4.824;2023-04-01T19:23:40;22.77;;;20.95;;
74908;SDS011;63468;52.058;4.824;2023-04-01T19:26:37;23.02;;;21.20;;
74908;SDS011;63468;52.058;4.824;2023-04-01T19:34:30;22.77;;;20.98;;
74908;SDS011;63468;52.058;4.824;2023-04-01T19:50:50;23.80;;;21.80;;
74908;SDS011;63468;52.058;4.824;2023-04-01T19:56:01;26.55;;;24.35;;
74908;SDS011;63468;52.058;4.824;2023-04-01T19:59:09;23.80;;;21.83;;
74908;SDS011;63468;52.058;4.824;2023-04-01T20:01:44;25.20;;;22.98;;
74908;SDS011;63468;52.058;4.824;2023-04-01T20:04:25;26.23;;;24.23;;
74908;SDS011;63468;52.058;4.824;2023-04-01T20:07:01;26.42;;;24.15;;
74908;SDS011;63468;52.058;4.824;2023-04-01T20:17:46;22.75;;;20.58;;
74908;SDS011;63468;52.058;4.824;2023-04-01T20:25:54;22.88;;;20.90;;
74908;SDS011;63468;52.058;4.824;2023-04-01T20:28:25;23.13;;;21.25;;
74908;SDS011;63468;52.058;4.824;2023-04-01T20:31:08;24.70;;;22.80;;
74908;SDS011;63468;52.058;4.824;2023-04-01T20:37:02;25.20;;;23.08;;
74908;SDS011;63468;52.058;4.824;2023-04-01T20:53:12;27.42;;;24.92;;
74908;SDS011;63468;52.058;4.824;2023-04-01T21:01:13;18.02;;;16.02;;
74908;SDS011;63468;52.058;4.824;2023-04-01T21:09:10;23.45;;;21.30;;
74908;SDS011;63468;52.058;4.824;2023-04-01T21:12:02;22.67;;;20.48;;
74908;SDS011;63468;52.058;4.824;2023-04-01T21:17:26;21.70;;;19.45;;
74908;SDS011;63468;52.058;4.824;2023-04-01T21:23:02;20.00;;;17.95;;
74908;SDS011;63468;52.058;4.824;2023-04-01T21:25:58;22.83;;;20.88;;
74908;SDS011;63468;52.058;4.824;2023-04-01T21:39:51;20.60;;;18.67;;
74908;SDS011;63468;52.058;4.824;2023-04-01T21:42:25;18.88;;;16.65;;
74908;SDS011;63468;52.058;4.824;2023-04-01T22:01:41;18.42;;;16.52;;
74908;SDS011;63468;52.058;4.824;2023-04-01T22:17:52;18.17;;;16.02;;
74908;SDS011;63468;52.058;4.824;2023-04-01T22:25:34;21.63;;;19.63;;
74908;SDS011;63468;52.058;4.824;2023-04-01T22:28:19;17.70;;;15.98;;
74908;SDS011;63468;52.058;4.824;2023-04-01T22:30:55;18.83;;;16.83;;
74908;SDS011;63468;52.058;4.824;2023-04-01T22:36:05;24.17;;;22.05;;
74908;SDS011;63468;52.058;4.824;2023-04-01T22:38:51;24.70;;;22.10;;
74908;SDS011;63468;52.058;4.824;2023-04-01T22:44:40;22.53;;;20.30;;
74908;SDS011;63468;52.058;4.824;2023-04-01T22:50:46;20.65;;;18.75;;
74908;SDS011;63468;52.058;4.824;2023-04-01T22:53:23;21.42;;;19.10;;
74908;SDS011;63468;52.058;4.824;2023-04-01T22:55:53;22.75;;;20.60;;
74908;SDS011;63468;52.058;4.824;2023-04-01T22:58:26;20.25;;;18.05;;
74908;SDS011;63468;52.058;4.824;2023-04-01T23:00:56;21.33;;;19.00;;
74908;SDS011;63468;52.058;4.824;2023-04-01T23:03:31;20.27;;;18.48;;
74908;SDS011;63468;52.058;4.824;2023-04-01T23:05:59;18.67;;;16.85;;
74908;SDS011;63468;52.058;4.824;2023-04-01T23:11:18;20.02;;;17.88;;
74908;SDS011;63468;52.058;4.824;2023-04-01T23:13:46;21.02;;;18.88;;
74908;SDS011;63468;52.058;4.824;2023-04-01T23:16:17;21.15;;;19.00;;
74908;SDS011;63468;52.058;4.824;2023-04-01T23:22:16;19.55;;;17.65;;
74908;SDS011;63468;52.058;4.824;2023-04-01T23:29:54;20.08;;;18.15;;
74908;SDS011;63468;52.058;4.824;2023-04-01T23:32:22;22.70;;;19.95;;
74908;SDS011;63468;52.058;4.824;2023-04-01T23:34:51;21.67;;;18.60;;
74908;SDS011;63468;52.058;4.824;2023-04-01T23:37:17;21.20;;;17.95;;
74908;SDS011;63468;52.058;4.824;2023-04-01T23:39:51;22.23;;;20.00;;
74908;SDS011;63468;52.058;4.824;2023-04-01T23:42:19;22.13;;;19.80;;
74908;SDS011;63468;52.058;4.824;2023-04-01T23:44:48;22.27;;;19.90;;
74908;SDS011;63468;52.058;4.824;2023-04-01T23:47:23;20.85;;;17.60;;
74908;SDS011;63468;52.058;4.824;2023-04-01T23:49:59;28.48;;;17.92;;
74908;SDS011;63468;52.058;4.824;2023-04-01T23:52:28;22.42;;;18.70;;
74908;SDS011;63468;52.058;4.824;2023-04-01T23:54:57;21.30;;;19.17;;
74908;SDS011;63468;52.058;4.824;2023-04-01T23:57:27;21.90;;;19.55;;
